createdAt,value
2023-02-09T00:00:52.736Z,13.48
2023-02-09T00:02:24.486Z,13.48
2023-02-09T00:03:57.014Z,12.63
2023-02-09T00:05:28.673Z,14.07
2023-02-09T00:07:03.282Z,12.30
2023-02-09T00:08:36.288Z,13.57
2023-02-09T00:10:08.667Z,13.95
2023-02-09T00:11:58.795Z,13.27
2023-02-09T00:13:30.734Z,12.20
2023-02-09T00:15:02.502Z,11.30
2023-02-09T00:16:34.474Z,13.52
2023-02-09T00:18:06.264Z,13.20
2023-02-09T00:19:38.347Z,10.35
2023-02-09T00:21:11.844Z,12.48
2023-02-09T00:22:43.673Z,11.38
2023-02-09T00:24:15.961Z,11.73
2023-02-09T00:25:47.629Z,12.00
2023-02-09T00:27:19.728Z,12.65
2023-02-09T00:28:51.401Z,12.57
2023-02-09T00:30:25.672Z,11.63
2023-02-09T00:31:57.591Z,13.18
2023-02-09T00:33:29.401Z,13.07
2023-02-09T00:35:01.221Z,13.55
2023-02-09T00:36:33.294Z,12.93
2023-02-09T00:38:05.991Z,12.90
2023-02-09T00:39:37.868Z,13.02
2023-02-09T00:41:11.247Z,12.05
2023-02-09T00:42:43.034Z,11.80
2023-02-09T00:44:15.068Z,12.75
2023-02-09T00:45:47.119Z,13.23
2023-02-09T00:47:19.231Z,13.23
2023-02-09T00:48:51.341Z,13.55
2023-02-09T00:50:23.060Z,12.75
2023-02-09T00:51:54.808Z,12.93
2023-02-09T00:53:26.560Z,12.95
2023-02-09T00:54:58.232Z,12.85
2023-02-09T00:56:29.861Z,12.48
2023-02-09T00:58:01.578Z,11.00
2023-02-09T00:59:35.420Z,11.25
2023-02-09T01:01:10.506Z,12.25
2023-02-09T01:02:42.367Z,11.75
2023-02-09T01:04:14.099Z,11.68
2023-02-09T01:05:45.714Z,12.10
2023-02-09T01:09:19.255Z,12.10
2023-02-09T01:10:51.328Z,12.57
2023-02-09T01:12:23.013Z,13.23
2023-02-09T01:13:58.746Z,12.07
2023-02-09T01:15:30.433Z,12.07
2023-02-09T01:17:02.003Z,13.23
2023-02-09T01:18:34.371Z,10.77
2023-02-09T01:20:10.443Z,11.65
2023-02-09T01:21:42.863Z,11.40
2023-02-09T01:23:14.559Z,11.95
2023-02-09T01:24:46.195Z,11.43
2023-02-09T01:26:20.509Z,11.68
2023-02-09T01:27:52.237Z,12.70
2023-02-09T01:29:24.013Z,10.52
2023-02-09T01:30:55.759Z,12.10
2023-02-09T01:32:27.351Z,12.23
2023-02-09T01:34:02.432Z,10.95
2023-02-09T01:35:34.030Z,11.25
2023-02-09T01:37:05.730Z,10.73
2023-02-09T01:38:37.357Z,10.95
2023-02-09T01:40:10.344Z,11.55
2023-02-09T01:41:43.021Z,11.93
2023-02-09T01:43:15.189Z,13.68
2023-02-09T01:44:46.727Z,11.85
2023-02-09T01:46:18.420Z,11.13
2023-02-09T01:48:01.911Z,13.45
2023-02-09T01:49:33.497Z,10.80
2023-02-09T01:51:05.264Z,13.13
2023-02-09T01:52:36.973Z,12.35
2023-02-09T01:54:14.774Z,12.00
2023-02-09T01:55:59.768Z,11.75
2023-02-09T01:57:36.020Z,11.75
2023-02-09T01:59:09.813Z,11.15
2023-02-09T02:00:42.318Z,12.38
2023-02-09T02:02:14.967Z,11.90
2023-02-09T02:03:46.742Z,11.43
2023-02-09T02:05:19.767Z,12.98
2023-02-09T02:06:56.744Z,12.05
2023-02-09T02:08:35.371Z,11.20
2023-02-09T02:10:07.662Z,10.88
2023-02-09T02:11:42.474Z,11.52
2023-02-09T02:13:14.982Z,11.65
2023-02-09T02:14:46.700Z,12.60
2023-02-09T02:16:47.336Z,13.07
2023-02-09T02:18:39.071Z,11.90
2023-02-09T02:20:35.184Z,9.90
2023-02-09T02:22:13.366Z,12.35
2023-02-09T02:23:55.798Z,11.25
2023-02-09T02:25:39.568Z,11.73
2023-02-09T02:27:25.019Z,12.18
2023-02-09T02:29:22.320Z,10.63
2023-02-09T02:31:03.799Z,12.15
2023-02-09T02:32:49.215Z,12.07
2023-02-09T02:34:32.063Z,12.90
2023-02-09T02:36:24.491Z,11.93
2023-02-09T02:38:07.987Z,12.43
2023-02-09T02:40:01.027Z,11.57
2023-02-09T02:42:26.675Z,11.57
2023-02-09T02:44:06.977Z,11.48
2023-02-09T02:45:55.693Z,14.27
2023-02-09T02:47:28.639Z,13.30
2023-02-09T02:49:06.339Z,13.38
2023-02-09T02:50:45.332Z,12.93
2023-02-09T02:52:17.262Z,11.95
2023-02-09T02:53:54.406Z,12.68
2023-02-09T02:55:28.975Z,12.82
2023-02-09T02:57:06.005Z,12.77
2023-02-09T02:58:40.340Z,13.77
2023-02-09T03:00:21.471Z,12.65
2023-02-09T03:01:58.821Z,11.65
2023-02-09T03:03:34.376Z,10.80
2023-02-09T03:05:08.226Z,11.32
2023-02-09T03:06:39.870Z,13.70
2023-02-09T03:08:11.492Z,12.77
2023-02-09T03:09:51.553Z,12.32
2023-02-09T03:11:27.884Z,12.80
2023-02-09T03:13:37.119Z,13.38
2023-02-09T03:19:30.061Z,12.50
2023-02-09T03:21:10.470Z,12.30
2023-02-09T03:22:48.343Z,12.50
2023-02-09T03:24:34.684Z,12.07
2023-02-09T03:26:22.359Z,12.32
2023-02-09T03:28:02.293Z,12.32
2023-02-09T03:29:35.158Z,12.50
2023-02-09T03:31:08.472Z,12.43
2023-02-09T03:32:42.119Z,14.63
2023-02-09T03:34:13.822Z,11.43
2023-02-09T03:35:49.544Z,13.20
2023-02-09T03:37:21.501Z,12.23
2023-02-09T03:38:53.158Z,13.00
2023-02-09T03:40:24.745Z,13.95
2023-02-09T03:41:56.256Z,13.75
2023-02-09T03:43:47.767Z,13.75
2023-02-09T03:45:19.330Z,11.40
2023-02-09T03:46:51.108Z,12.90
2023-02-09T03:48:22.710Z,11.48
2023-02-09T03:49:54.285Z,12.55
2023-02-09T03:51:25.829Z,15.10
2023-02-09T03:52:57.912Z,13.57
2023-02-09T03:54:30.875Z,13.95
2023-02-09T03:56:07.839Z,13.35
2023-02-09T03:57:39.353Z,14.73
2023-02-09T03:59:11.017Z,13.95
2023-02-09T04:00:43.018Z,12.32
2023-02-09T04:02:14.846Z,13.15
2023-02-09T04:03:46.481Z,13.25
2023-02-09T04:05:18.134Z,15.38
2023-02-09T04:06:50.923Z,15.00
2023-02-09T04:08:22.507Z,12.80
2023-02-09T04:09:54.063Z,12.60
2023-02-09T04:11:26.366Z,12.75
2023-02-09T04:12:57.938Z,14.30
2023-02-09T04:14:29.514Z,12.98
2023-02-09T04:16:01.149Z,13.05
2023-02-09T04:17:32.734Z,13.23
2023-02-09T04:19:04.647Z,13.90
2023-02-09T04:20:36.178Z,13.82
2023-02-09T04:22:08.518Z,13.50
2023-02-09T04:23:40.159Z,14.38
2023-02-09T04:25:11.814Z,10.40
2023-02-09T04:26:43.439Z,13.82
2023-02-09T04:28:15.268Z,15.73
2023-02-09T04:29:46.863Z,12.63
2023-02-09T04:31:19.062Z,15.30
2023-02-09T04:32:50.730Z,13.38
2023-02-09T04:34:24.197Z,10.82
2023-02-09T04:35:55.893Z,13.90
2023-02-09T04:37:27.514Z,13.38
2023-02-09T04:38:59.114Z,12.48
2023-02-09T04:40:30.674Z,13.27
2023-02-09T04:42:02.238Z,13.13
2023-02-09T04:43:34.292Z,12.13
2023-02-09T04:45:06.735Z,13.00
2023-02-09T04:46:38.266Z,10.70
2023-02-09T04:48:16.107Z,11.32
2023-02-09T04:49:47.686Z,12.48
2023-02-09T04:51:19.196Z,10.25
2023-02-09T04:52:51.569Z,10.50
2023-02-09T04:54:23.166Z,10.82
2023-02-09T04:55:54.773Z,11.68
2023-02-09T04:57:44.901Z,10.48
2023-02-09T04:59:35.043Z,11.77
2023-02-09T05:01:08.956Z,10.73
2023-02-09T05:02:40.596Z,11.90
2023-02-09T05:04:12.168Z,9.93
2023-02-09T05:05:43.846Z,12.43
2023-02-09T05:07:15.449Z,12.38
2023-02-09T05:08:47.359Z,10.88
2023-02-09T05:10:19.078Z,13.57
2023-02-09T05:11:50.742Z,13.32
2023-02-09T05:13:23.492Z,13.70
2023-02-09T05:14:55.067Z,14.73
2023-02-09T05:16:26.665Z,13.80
2023-02-09T05:17:58.355Z,13.23
2023-02-09T05:19:29.920Z,13.48
2023-02-09T05:21:01.946Z,13.32
2023-02-09T05:22:33.967Z,13.57
2023-02-09T05:24:05.967Z,13.18
2023-02-09T05:25:37.711Z,12.50
2023-02-09T05:27:09.414Z,14.32
2023-02-09T05:28:41.039Z,14.73
2023-02-09T05:30:12.909Z,13.90
2023-02-09T05:31:44.610Z,14.13
2023-02-09T05:33:16.196Z,14.23
2023-02-09T05:34:47.846Z,14.90
2023-02-09T05:36:19.420Z,9.25
2023-02-09T05:37:51.287Z,13.07
2023-02-09T05:39:22.878Z,11.20
2023-02-09T05:40:54.486Z,12.60
2023-02-09T05:42:27.548Z,15.00
2023-02-09T05:43:59.170Z,16.35
2023-02-09T05:45:31.023Z,16.10
2023-02-09T05:47:02.628Z,28.20
2023-02-09T05:48:34.282Z,20.30
2023-02-09T05:50:06.378Z,14.98
2023-02-09T05:51:38.003Z,12.20
2023-02-09T05:53:09.709Z,13.18
2023-02-09T05:54:41.298Z,14.00
2023-02-09T05:56:12.938Z,11.93
2023-02-09T05:57:44.513Z,13.27
2023-02-09T05:59:16.137Z,13.27
2023-02-09T06:00:47.909Z,13.00
2023-02-09T06:02:20.138Z,14.20
2023-02-09T06:03:51.765Z,12.20
2023-02-09T06:05:23.500Z,13.75
2023-02-09T06:06:55.993Z,12.45
2023-02-09T06:08:27.592Z,13.43
2023-02-09T06:09:59.240Z,13.75
2023-02-09T06:11:30.843Z,10.63
2023-02-09T06:13:02.473Z,14.48
2023-02-09T06:14:34.045Z,10.90
2023-02-09T06:16:06.027Z,12.60
2023-02-09T06:17:37.749Z,14.18
2023-02-09T06:19:13.773Z,12.98
2023-02-09T06:20:45.748Z,13.02
2023-02-09T06:22:17.576Z,14.02
2023-02-09T06:23:49.196Z,12.50
2023-02-09T06:25:20.906Z,13.95
2023-02-09T06:26:52.592Z,12.27
2023-02-09T06:28:24.564Z,13.38
2023-02-09T06:29:56.184Z,12.90
2023-02-09T06:31:28.021Z,14.80
2023-02-09T06:32:59.657Z,14.23
2023-02-09T06:34:31.288Z,12.88
2023-02-09T06:36:04.744Z,13.20
2023-02-09T06:37:36.367Z,12.18
2023-02-09T06:39:10.050Z,13.48
2023-02-09T06:40:41.788Z,12.68
2023-02-09T06:42:13.446Z,14.05
2023-02-09T06:43:45.101Z,14.35
2023-02-09T06:45:17.531Z,15.07
2023-02-09T06:46:49.235Z,15.20
2023-02-09T06:48:21.969Z,15.32
2023-02-09T06:49:53.689Z,13.68
2023-02-09T06:51:25.423Z,16.35
2023-02-09T06:52:58.168Z,15.45
2023-02-09T06:54:29.732Z,14.68
2023-02-09T06:56:01.863Z,16.55
2023-02-09T06:57:34.889Z,16.17
2023-02-09T06:59:06.478Z,15.43
2023-02-09T07:00:38.073Z,14.82
2023-02-09T07:02:10.841Z,14.50
2023-02-09T07:03:43.406Z,14.45
2023-02-09T07:05:16.893Z,15.43
2023-02-09T07:06:48.553Z,15.15
2023-02-09T07:08:20.159Z,16.08
2023-02-09T07:09:51.868Z,15.77
2023-02-09T07:11:24.409Z,15.50
2023-02-09T07:12:58.133Z,13.60
2023-02-09T07:14:29.874Z,14.68
2023-02-09T07:16:03.028Z,15.88
2023-02-09T07:17:34.643Z,15.45
2023-02-09T07:19:06.284Z,13.65
2023-02-09T07:20:38.084Z,11.75
2023-02-09T07:22:09.716Z,12.75
2023-02-09T07:23:41.888Z,12.02
2023-02-09T07:25:13.590Z,12.65
2023-02-09T07:26:45.201Z,13.77
2023-02-09T07:28:20.348Z,12.30
2023-02-09T07:29:52.054Z,14.63
2023-02-09T07:31:23.855Z,12.95
2023-02-09T07:32:55.491Z,13.43
2023-02-09T07:34:27.180Z,11.82
2023-02-09T07:35:59.180Z,13.55
2023-02-09T07:37:31.003Z,10.15
2023-02-09T07:39:03.023Z,13.13
2023-02-09T07:40:37.264Z,14.73
2023-02-09T07:42:09.264Z,14.43
2023-02-09T07:43:56.667Z,12.65
2023-02-09T07:45:28.717Z,13.98
2023-02-09T07:47:00.744Z,13.52
2023-02-09T07:48:33.783Z,14.60
2023-02-09T07:50:06.140Z,13.85
2023-02-09T07:51:38.643Z,15.80
2023-02-09T07:53:10.293Z,15.50
2023-02-09T07:54:42.046Z,14.80
2023-02-09T07:56:13.730Z,16.23
2023-02-09T07:57:45.482Z,15.50
2023-02-09T07:59:17.137Z,16.40
2023-02-09T08:00:52.160Z,14.43
2023-02-09T08:02:34.901Z,14.82
2023-02-09T08:04:06.677Z,14.32
2023-02-09T08:05:41.217Z,13.38
2023-02-09T08:07:12.934Z,13.68
2023-02-09T08:08:49.537Z,15.27
2023-02-09T08:10:21.204Z,16.27
2023-02-09T08:12:03.363Z,17.05
2023-02-09T08:13:38.235Z,14.23
2023-02-09T08:15:11.174Z,15.80
2023-02-09T08:16:43.902Z,17.80
2023-02-09T08:18:23.134Z,16.08
2023-02-09T08:20:11.283Z,14.68
2023-02-09T08:21:46.566Z,13.73
2023-02-09T08:23:23.804Z,14.82
2023-02-09T08:24:57.124Z,15.57
2023-02-09T08:26:29.624Z,15.07
2023-02-09T08:28:02.693Z,13.65
2023-02-09T08:29:34.484Z,16.23
2023-02-09T08:31:06.288Z,14.05
2023-02-09T08:32:38.101Z,14.07
2023-02-09T08:34:09.867Z,16.48
2023-02-09T08:35:41.924Z,16.10
2023-02-09T08:37:13.558Z,16.30
2023-02-09T08:38:45.785Z,14.88
2023-02-09T08:40:17.880Z,17.02
2023-02-09T08:41:49.847Z,13.57
2023-02-09T08:43:21.666Z,17.40
2023-02-09T08:44:53.465Z,14.52
2023-02-09T08:46:25.487Z,14.15
2023-02-09T08:47:57.599Z,13.93
2023-02-09T08:49:29.523Z,14.35
2023-02-09T08:51:01.291Z,14.90
2023-02-09T08:52:33.458Z,14.80
2023-02-09T08:54:05.453Z,13.48
2023-02-09T08:55:39.214Z,14.25
2023-02-09T08:57:11.159Z,14.77
2023-02-09T08:58:43.282Z,15.63
2023-02-09T09:00:15.701Z,16.08
2023-02-09T09:01:48.071Z,13.38
2023-02-09T09:03:20.078Z,14.80
2023-02-09T09:04:52.147Z,15.23
2023-02-09T09:06:24.070Z,12.93
2023-02-09T09:07:56.285Z,15.02
2023-02-09T09:09:28.739Z,16.42
2023-02-09T09:11:00.856Z,15.23
2023-02-09T09:12:32.877Z,14.73
2023-02-09T09:14:05.020Z,14.27
2023-02-09T09:15:38.432Z,16.13
2023-02-09T09:17:11.272Z,15.50
2023-02-09T09:18:44.614Z,18.23
2023-02-09T09:20:16.740Z,16.77
2023-02-09T09:21:48.600Z,16.25
2023-02-09T09:23:21.395Z,18.05
2023-02-09T09:24:55.475Z,17.23
2023-02-09T09:26:27.595Z,17.17
2023-02-09T09:27:59.427Z,15.80
2023-02-09T09:29:35.181Z,17.55
2023-02-09T09:31:17.822Z,17.55
2023-02-09T09:34:24.989Z,14.55
2023-02-09T09:36:01.307Z,16.77
2023-02-09T09:37:33.608Z,17.63
2023-02-09T09:39:05.578Z,19.50
2023-02-09T09:40:40.612Z,17.55
2023-02-09T09:42:34.632Z,18.33
2023-02-09T09:44:16.859Z,17.75
2023-02-09T09:45:49.621Z,18.88
2023-02-09T09:47:36.277Z,17.23
2023-02-09T09:49:19.483Z,17.02
2023-02-09T09:50:57.215Z,19.00
2023-02-09T09:52:40.949Z,18.00
2023-02-09T09:54:33.857Z,19.48
2023-02-09T09:56:08.116Z,17.20
2023-02-09T09:57:44.442Z,19.48
2023-02-09T09:59:29.116Z,15.38
2023-02-09T10:01:01.147Z,18.10
2023-02-09T10:02:34.547Z,19.77
2023-02-09T10:04:14.171Z,19.20
2023-02-09T10:05:53.794Z,17.95
2023-02-09T10:07:31.234Z,19.33
2023-02-09T10:09:23.210Z,18.48
2023-02-09T10:11:04.088Z,16.63
2023-02-09T10:12:39.150Z,18.25
2023-02-09T10:14:11.730Z,17.88
2023-02-09T10:15:48.323Z,20.85
2023-02-09T10:17:20.281Z,19.40
2023-02-09T10:18:56.237Z,20.40
2023-02-09T10:20:45.161Z,20.90
2023-02-09T10:22:21.443Z,19.42
2023-02-09T10:24:03.014Z,18.42
2023-02-09T10:25:50.546Z,20.42
2023-02-09T10:27:25.484Z,17.45
2023-02-09T10:29:07.257Z,18.48
2023-02-09T10:30:39.318Z,17.33
2023-02-09T10:32:11.469Z,19.08
2023-02-09T10:33:46.278Z,18.27
2023-02-09T10:35:33.619Z,18.92
2023-02-09T10:37:38.857Z,18.67
2023-02-09T10:39:18.610Z,18.45
2023-02-09T10:40:51.430Z,17.85
2023-02-09T10:42:27.305Z,19.25
2023-02-09T10:43:59.604Z,19.52
2023-02-09T10:45:39.010Z,21.08
2023-02-09T10:47:19.764Z,20.15
2023-02-09T10:48:51.830Z,21.55
2023-02-09T10:50:23.737Z,20.52
2023-02-09T10:52:15.062Z,20.38
2023-02-09T10:53:57.901Z,20.02
2023-02-09T10:55:34.682Z,19.55
2023-02-09T10:57:20.941Z,18.73
2023-02-09T10:58:59.844Z,21.42
2023-02-09T11:00:49.285Z,21.15
2023-02-09T11:02:35.267Z,19.88
2023-02-09T11:04:21.954Z,18.15
2023-02-09T11:06:01.741Z,20.67
2023-02-09T11:07:41.679Z,21.92
2023-02-09T11:09:18.455Z,17.70
2023-02-09T11:11:13.939Z,19.23
2023-02-09T11:14:20.233Z,16.90
2023-02-09T11:16:21.685Z,21.25
2023-02-09T11:18:03.910Z,20.25
2023-02-09T11:20:04.252Z,20.00
2023-02-09T11:21:48.640Z,18.25
2023-02-09T11:23:38.995Z,19.80
2023-02-09T11:25:13.866Z,19.38
2023-02-09T11:27:01.427Z,20.30
2023-02-09T11:28:54.639Z,21.23
2023-02-09T11:30:51.760Z,18.20
2023-02-09T11:32:42.042Z,20.95
2023-02-09T11:34:38.905Z,20.15
2023-02-09T11:36:32.765Z,19.27
2023-02-09T11:38:43.573Z,20.70
2023-02-09T11:40:27.567Z,18.67
2023-02-09T11:42:23.988Z,19.02
2023-02-09T11:43:57.684Z,20.85
2023-02-09T11:45:49.634Z,21.77
2023-02-09T11:47:28.876Z,19.15
2023-02-09T11:49:11.445Z,18.67
2023-02-09T11:50:52.675Z,16.70
2023-02-09T11:52:34.270Z,19.20
2023-02-09T11:54:24.471Z,19.95
2023-02-09T11:55:59.783Z,18.73
2023-02-09T11:57:39.460Z,18.23
2023-02-09T11:59:45.797Z,18.95
2023-02-09T12:01:40.716Z,21.38
2023-02-09T12:03:14.158Z,20.10
2023-02-09T12:04:58.527Z,18.88
2023-02-09T12:06:35.825Z,21.30
2023-02-09T12:08:34.242Z,19.25
2023-02-09T12:10:15.060Z,20.05
2023-02-09T12:12:06.979Z,19.58
2023-02-09T12:13:58.222Z,17.27
2023-02-09T12:15:52.412Z,19.33
2023-02-09T12:17:46.550Z,18.17
2023-02-09T12:19:28.457Z,19.50
2023-02-09T12:21:05.760Z,17.10
2023-02-09T12:22:48.666Z,19.08
2023-02-09T12:25:08.061Z,19.15
2023-02-09T12:26:44.557Z,18.40
2023-02-09T12:28:37.205Z,19.73
2023-02-09T12:30:39.768Z,17.85
2023-02-09T12:32:12.908Z,17.52
2023-02-09T12:33:47.627Z,18.17
2023-02-09T12:35:38.676Z,18.80
2023-02-09T12:37:13.658Z,17.80
2023-02-09T12:38:56.499Z,19.00
2023-02-09T12:40:37.048Z,19.15
2023-02-09T12:42:08.877Z,18.90
2023-02-09T12:43:41.861Z,19.90
2023-02-09T12:45:28.938Z,16.02
2023-02-09T12:47:00.786Z,17.27
2023-02-09T12:48:32.716Z,16.35
2023-02-09T12:50:22.074Z,18.00
2023-02-09T12:51:53.677Z,16.63
2023-02-09T12:53:26.347Z,19.00
2023-02-09T12:54:58.341Z,17.83
2023-02-09T12:56:32.317Z,17.83
2023-02-09T12:58:37.193Z,16.42
2023-02-09T13:00:09.391Z,15.15
2023-02-09T13:02:09.572Z,16.55
2023-02-09T13:03:49.479Z,15.82
2023-02-09T13:05:39.757Z,17.83
2023-02-09T13:07:34.152Z,15.43
2023-02-09T13:09:13.207Z,15.45
2023-02-09T13:10:50.828Z,16.83
2023-02-09T13:12:39.136Z,17.27
2023-02-09T13:14:13.326Z,18.05
2023-02-09T13:16:14.743Z,16.88
2023-02-09T13:18:14.077Z,15.63
2023-02-09T13:20:04.388Z,15.25
2023-02-09T13:21:52.474Z,13.80
2023-02-09T13:23:50.696Z,14.90
2023-02-09T13:25:32.336Z,14.55
2023-02-09T13:27:20.046Z,14.48
2023-02-09T13:29:20.885Z,14.98
2023-02-09T13:32:34.715Z,15.07
2023-02-09T13:34:22.093Z,16.13
2023-02-09T13:36:30.830Z,14.98
2023-02-09T13:38:15.976Z,13.43
2023-02-09T13:39:57.858Z,14.07
2023-02-09T13:41:37.760Z,12.75
2023-02-09T13:43:12.460Z,13.85
2023-02-09T13:44:45.978Z,14.23
2023-02-09T13:46:26.050Z,13.90
2023-02-09T13:48:04.231Z,14.30
2023-02-09T13:49:35.979Z,14.35
2023-02-09T13:51:19.285Z,14.93
2023-02-09T13:52:51.403Z,13.60
2023-02-09T13:54:23.178Z,15.07
2023-02-09T13:55:57.746Z,14.85
2023-02-09T13:57:38.446Z,13.32
2023-02-09T13:59:13.854Z,13.65
2023-02-09T14:00:50.033Z,12.38
2023-02-09T14:02:26.351Z,13.52
2023-02-09T14:04:16.424Z,13.50
2023-02-09T14:06:02.087Z,13.32
2023-02-09T14:07:37.012Z,14.20
2023-02-09T14:09:23.048Z,15.07
2023-02-09T14:11:05.835Z,13.10
2023-02-09T14:12:51.294Z,13.65
2023-02-09T14:14:51.385Z,13.35
2023-02-09T14:16:28.109Z,13.73
2023-02-09T14:18:00.011Z,14.23
2023-02-09T14:19:32.386Z,15.88
2023-02-09T14:21:16.280Z,15.32
2023-02-09T14:22:59.134Z,14.43
2023-02-09T14:24:44.570Z,14.65
2023-02-09T14:26:23.647Z,13.50
2023-02-09T14:27:57.043Z,15.30
2023-02-09T14:29:36.232Z,13.48
2023-02-09T14:31:24.994Z,14.70
2023-02-09T14:32:58.599Z,13.18
2023-02-09T14:34:37.257Z,13.18
2023-02-09T14:36:29.876Z,13.75
2023-02-09T14:38:03.510Z,12.98
2023-02-09T14:39:56.160Z,12.40
2023-02-09T14:41:28.168Z,13.00
2023-02-09T14:43:11.876Z,12.82
2023-02-09T14:44:53.939Z,12.27
2023-02-09T14:46:25.550Z,12.23
2023-02-09T14:47:57.254Z,13.10
2023-02-09T14:49:29.610Z,13.25
2023-02-09T14:51:10.771Z,13.68
2023-02-09T14:52:48.011Z,15.05
2023-02-09T14:54:22.967Z,15.65
2023-02-09T14:55:56.006Z,13.35
2023-02-09T14:57:32.050Z,14.82
2023-02-09T15:00:35.557Z,11.15
2023-02-09T15:02:16.998Z,13.20
2023-02-09T15:03:48.817Z,13.95
2023-02-09T15:05:22.519Z,12.00
2023-02-09T15:07:02.056Z,12.48
2023-02-09T15:08:36.933Z,13.73
2023-02-09T15:10:24.583Z,13.10
2023-02-09T15:12:05.626Z,12.57
2023-02-09T15:13:38.244Z,13.18
2023-02-09T15:15:15.576Z,12.57
2023-02-09T15:16:47.258Z,12.52
2023-02-09T15:18:24.309Z,13.18
2023-02-09T15:19:57.780Z,13.75
2023-02-09T15:21:29.436Z,12.85
2023-02-09T15:23:01.258Z,13.23
2023-02-09T15:24:33.001Z,11.70
2023-02-09T15:26:04.794Z,12.82
2023-02-09T15:27:52.890Z,13.00
2023-02-09T15:29:25.985Z,12.85
2023-02-09T15:30:59.166Z,13.18
2023-02-09T15:32:31.017Z,12.65
2023-02-09T15:34:04.720Z,13.43
2023-02-09T15:35:36.496Z,13.75
2023-02-09T15:37:17.064Z,12.35
2023-02-09T15:38:48.862Z,12.02
2023-02-09T15:40:43.465Z,12.13
2023-02-09T15:42:35.488Z,12.82
2023-02-09T15:44:34.903Z,11.93
2023-02-09T15:46:07.314Z,12.10
2023-02-09T15:47:53.385Z,13.15
2023-02-09T15:49:25.263Z,12.48
2023-02-09T15:50:57.062Z,12.32
2023-02-09T15:52:30.489Z,13.00
2023-02-09T15:54:05.746Z,13.85
2023-02-09T15:55:38.471Z,11.57
2023-02-09T15:57:15.013Z,12.80
2023-02-09T15:58:51.102Z,11.95
2023-02-09T16:00:26.218Z,11.30
2023-02-09T16:02:00.162Z,12.27
2023-02-09T16:03:32.582Z,13.35
2023-02-09T16:05:04.368Z,12.30
2023-02-09T16:06:36.067Z,14.20
2023-02-09T16:08:26.080Z,12.90
2023-02-09T16:09:57.771Z,14.10
2023-02-09T16:11:33.044Z,12.43
2023-02-09T16:13:06.445Z,13.20
2023-02-09T16:14:38.448Z,13.30
2023-02-09T16:16:17.041Z,13.63
2023-02-09T16:17:49.775Z,13.60
2023-02-09T16:19:22.092Z,12.77
2023-02-09T16:20:54.291Z,13.50
2023-02-09T16:22:26.159Z,12.38
2023-02-09T16:24:00.524Z,14.57
2023-02-09T16:25:32.793Z,12.80
2023-02-09T16:27:14.588Z,13.02
2023-02-09T16:28:47.386Z,12.45
2023-02-09T16:30:22.189Z,13.90
2023-02-09T16:31:54.042Z,12.85
2023-02-09T16:33:26.766Z,12.60
2023-02-09T16:35:14.522Z,13.60
2023-02-09T16:36:48.699Z,13.98
2023-02-09T16:38:22.333Z,14.43
2023-02-09T16:39:55.348Z,12.30
2023-02-09T16:41:45.750Z,15.52
2023-02-09T16:43:17.773Z,12.50
2023-02-09T16:44:49.445Z,13.50
2023-02-09T16:46:21.040Z,14.00
2023-02-09T16:47:55.139Z,14.48
2023-02-09T16:49:40.313Z,12.88
2023-02-09T16:51:14.718Z,14.70
2023-02-09T16:52:46.730Z,15.27
2023-02-09T16:54:18.326Z,14.73
2023-02-09T16:55:50.448Z,17.48
2023-02-09T16:57:24.481Z,18.50
2023-02-09T16:58:56.203Z,16.83
2023-02-09T17:00:36.844Z,18.73
2023-02-09T17:02:33.500Z,16.25
2023-02-09T17:04:07.303Z,18.55
2023-02-09T17:05:38.923Z,16.63
2023-02-09T17:07:11.323Z,17.30
2023-02-09T17:08:43.401Z,16.05
2023-02-09T17:10:17.655Z,21.42
2023-02-09T17:11:49.469Z,19.65
2023-02-09T17:13:21.875Z,17.52
2023-02-09T17:14:53.474Z,16.30
2023-02-09T17:16:32.822Z,17.10
2023-02-09T17:18:07.792Z,15.85
2023-02-09T17:19:48.010Z,15.23
2023-02-09T17:21:29.368Z,17.48
2023-02-09T17:23:01.125Z,16.98
2023-02-09T17:24:32.693Z,14.23
2023-02-09T17:26:04.501Z,16.13
2023-02-09T17:27:36.157Z,16.17
2023-02-09T17:29:07.924Z,16.17
2023-02-09T17:30:40.832Z,16.75
2023-02-09T17:32:15.545Z,16.13
2023-02-09T17:33:49.916Z,15.48
2023-02-09T17:35:41.050Z,14.85
2023-02-09T17:37:14.800Z,16.20
2023-02-09T17:38:47.280Z,19.13
2023-02-09T17:40:21.902Z,16.85
2023-02-09T17:41:53.518Z,17.08
2023-02-09T17:43:25.594Z,17.85
2023-02-09T17:44:57.670Z,16.83
2023-02-09T17:46:29.459Z,17.35
2023-02-09T17:48:02.372Z,16.30
2023-02-09T17:49:34.887Z,17.15
2023-02-09T17:51:09.626Z,16.73
2023-02-09T17:52:41.303Z,17.13
2023-02-09T17:54:19.325Z,16.17
2023-02-09T17:55:53.973Z,16.77
2023-02-09T17:57:27.623Z,17.17
2023-02-09T17:59:03.223Z,17.48
2023-02-09T18:00:35.224Z,15.30
2023-02-09T18:02:16.152Z,17.88
2023-02-09T18:03:47.962Z,16.15
2023-02-09T18:05:22.898Z,17.20
2023-02-09T18:06:57.620Z,17.23
2023-02-09T18:08:31.571Z,17.75
2023-02-09T18:10:03.804Z,21.48
2023-02-09T18:12:03.060Z,22.90
2023-02-09T18:13:35.421Z,17.17
2023-02-09T18:15:16.329Z,19.92
2023-02-09T18:16:49.565Z,18.90
2023-02-09T18:18:24.145Z,19.75
2023-02-09T18:19:57.038Z,22.83
2023-02-09T18:21:29.475Z,24.25
2023-02-09T18:23:04.032Z,23.95
2023-02-09T18:24:35.972Z,21.02
2023-02-09T18:26:08.184Z,19.48
2023-02-09T18:27:40.134Z,17.80
2023-02-09T18:29:13.113Z,18.38
2023-02-09T18:30:45.572Z,17.60
2023-02-09T18:32:17.853Z,18.95
2023-02-09T18:33:50.553Z,19.27
2023-02-09T18:35:31.447Z,16.20
2023-02-09T18:37:03.425Z,17.60
2023-02-09T18:38:35.904Z,18.48
2023-02-09T18:40:07.800Z,18.85
2023-02-09T18:41:39.934Z,16.55
2023-02-09T18:43:14.611Z,16.73
2023-02-09T18:44:46.342Z,16.33
2023-02-09T18:46:19.735Z,15.80
2023-02-09T18:47:52.429Z,19.38
2023-02-09T18:49:24.188Z,18.73
2023-02-09T18:50:56.138Z,19.40
2023-02-09T18:52:27.976Z,18.38
2023-02-09T18:54:00.339Z,19.88
2023-02-09T18:55:34.035Z,16.92
2023-02-09T18:57:05.628Z,15.82
2023-02-09T18:58:37.798Z,18.00
2023-02-09T19:00:12.288Z,15.57
2023-02-09T19:01:45.345Z,18.25
2023-02-09T19:03:19.983Z,17.83
2023-02-09T19:04:51.717Z,16.60
2023-02-09T19:06:25.381Z,17.92
2023-02-09T19:07:57.434Z,18.20
2023-02-09T19:09:33.281Z,16.52
2023-02-09T19:11:06.728Z,19.83
2023-02-09T19:12:43.121Z,19.48
2023-02-09T19:14:33.480Z,17.90
2023-02-09T19:16:10.533Z,16.33
2023-02-09T19:17:42.716Z,17.38
2023-02-09T19:19:16.130Z,18.15
2023-02-09T19:20:47.864Z,19.15
2023-02-09T19:22:24.651Z,18.10
2023-02-09T19:23:56.263Z,17.00
2023-02-09T19:25:29.754Z,17.83
2023-02-09T19:27:01.804Z,17.88
2023-02-09T19:28:35.188Z,18.98
2023-02-09T19:30:08.529Z,18.63
2023-02-09T19:31:40.412Z,19.05
2023-02-09T19:33:12.367Z,19.23
2023-02-09T19:34:45.955Z,20.55
2023-02-09T19:36:17.581Z,22.92
2023-02-09T19:37:54.863Z,20.13
2023-02-09T19:39:26.774Z,21.20
2023-02-09T19:41:10.418Z,16.67
2023-02-09T19:42:42.726Z,19.50
2023-02-09T19:44:15.223Z,17.10
2023-02-09T19:45:55.827Z,17.60
2023-02-09T19:47:28.216Z,16.20
2023-02-09T19:48:59.899Z,17.70
2023-02-09T19:50:31.827Z,17.98
2023-02-09T19:52:03.600Z,20.20
2023-02-09T19:53:35.846Z,18.30
2023-02-09T19:55:08.032Z,17.58
2023-02-09T19:56:39.747Z,16.10
2023-02-09T19:58:11.610Z,17.00
2023-02-09T19:59:43.315Z,18.38
2023-02-09T20:01:15.463Z,19.52
2023-02-09T20:02:48.206Z,17.55
2023-02-09T20:04:19.858Z,18.05
2023-02-09T20:05:51.778Z,17.33
2023-02-09T20:07:23.477Z,17.40
2023-02-09T20:08:56.445Z,18.80
2023-02-09T20:10:28.128Z,19.35
2023-02-09T20:11:59.802Z,16.13
2023-02-09T20:13:31.497Z,15.45
2023-02-09T20:15:03.454Z,15.57
2023-02-09T20:16:35.170Z,16.48
2023-02-09T20:18:07.540Z,16.70
2023-02-09T20:19:39.520Z,20.38
2023-02-09T20:21:12.292Z,16.85
2023-02-09T20:22:44.049Z,15.23
2023-02-09T20:24:16.048Z,15.00
2023-02-09T20:25:47.726Z,14.43
2023-02-09T20:27:19.849Z,15.25
2023-02-09T20:28:52.273Z,13.70
2023-02-09T20:30:24.094Z,14.45
2023-02-09T20:31:56.361Z,14.70
2023-02-09T20:33:28.158Z,15.77
2023-02-09T20:35:00.097Z,15.25
2023-02-09T20:36:35.742Z,15.77
2023-02-09T20:38:08.226Z,17.92
2023-02-09T20:39:39.895Z,17.67
2023-02-09T20:41:15.444Z,16.38
2023-02-09T20:43:05.984Z,16.75
2023-02-09T20:44:56.195Z,15.73
2023-02-09T20:46:49.210Z,16.05
2023-02-09T20:48:21.729Z,15.00
2023-02-09T20:49:57.837Z,15.93
2023-02-09T20:51:29.658Z,15.05
2023-02-09T20:53:01.697Z,15.75